sensor_id;sensor_type;location;lat;lon;timestamp;pressure;altitude;pressure_sealevel;temperature;humidity
54144;BME280;40050;47.324;18.792;2023-04-24T00:01:14;996.43;;;14.85;53.09
54144;BME280;40050;47.324;18.792;2023-04-24T00:03:15;996.28;;;14.74;53.05
54144;BME280;40050;47.324;18.792;2023-04-24T00:05:16;996.23;;;14.70;53.85
54144;BME280;40050;47.324;18.792;2023-04-24T00:07:17;996.15;;;14.70;54.32
54144;BME280;40050;47.324;18.792;2023-04-24T00:09:18;996.04;;;14.73;55.15
54144;BME280;40050;47.324;18.792;2023-04-24T00:11:19;996.02;;;14.76;55.20
54144;BME280;40050;47.324;18.792;2023-04-24T00:13:20;996.00;;;14.76;54.49
54144;BME280;40050;47.324;18.792;2023-04-24T00:15:21;995.90;;;14.76;54.52
54144;BME280;40050;47.324;18.792;2023-04-24T00:17:22;995.95;;;14.78;54.64
54144;BME280;40050;47.324;18.792;2023-04-24T00:19:23;995.90;;;14.82;54.41
54144;BME280;40050;47.324;18.792;2023-04-24T00:21:24;995.88;;;14.84;54.63
54144;BME280;40050;47.324;18.792;2023-04-24T00:23:25;995.92;;;14.86;54.64
54144;BME280;40050;47.324;18.792;2023-04-24T00:25:26;995.85;;;14.84;54.53
54144;BME280;40050;47.324;18.792;2023-04-24T00:27:27;995.80;;;14.84;54.44
54144;BME280;40050;47.324;18.792;2023-04-24T00:29:28;995.86;;;14.88;54.89
54144;BME280;40050;47.324;18.792;2023-04-24T00:31:28;995.92;;;14.95;54.93
54144;BME280;40050;47.324;18.792;2023-04-24T00:33:29;995.97;;;15.00;55.23
54144;BME280;40050;47.324;18.792;2023-04-24T00:35:30;995.93;;;14.97;55.20
54144;BME280;40050;47.324;18.792;2023-04-24T00:37:31;995.96;;;14.89;55.92
54144;BME280;40050;47.324;18.792;2023-04-24T00:39:32;996.02;;;14.79;55.66
54144;BME280;40050;47.324;18.792;2023-04-24T00:41:33;995.95;;;14.75;55.64
54144;BME280;40050;47.324;18.792;2023-04-24T00:43:34;995.87;;;14.70;55.78
54144;BME280;40050;47.324;18.792;2023-04-24T00:45:35;995.81;;;14.77;56.03
54144;BME280;40050;47.324;18.792;2023-04-24T00:47:37;995.79;;;14.78;56.56
54144;BME280;40050;47.324;18.792;2023-04-24T00:49:39;995.85;;;14.83;57.49
54144;BME280;40050;47.324;18.792;2023-04-24T00:51:40;995.87;;;14.82;58.48
54144;BME280;40050;47.324;18.792;2023-04-24T00:53:41;995.87;;;14.90;58.82
54144;BME280;40050;47.324;18.792;2023-04-24T00:55:41;995.85;;;15.00;59.45
54144;BME280;40050;47.324;18.792;2023-04-24T00:57:43;995.80;;;14.99;60.45
54144;BME280;40050;47.324;18.792;2023-04-24T00:59:44;995.68;;;15.00;61.22
54144;BME280;40050;47.324;18.792;2023-04-24T01:01:46;995.51;;;14.98;61.65
54144;BME280;40050;47.324;18.792;2023-04-24T01:03:49;995.55;;;15.08;61.74
54144;BME280;40050;47.324;18.792;2023-04-24T01:05:51;995.47;;;15.10;63.23
54144;BME280;40050;47.324;18.792;2023-04-24T01:07:52;995.45;;;15.13;62.93
54144;BME280;40050;47.324;18.792;2023-04-24T01:09:53;995.45;;;15.13;63.27
54144;BME280;40050;47.324;18.792;2023-04-24T01:11:54;995.48;;;15.18;63.23
54144;BME280;40050;47.324;18.792;2023-04-24T01:13:55;995.39;;;15.09;64.50
54144;BME280;40050;47.324;18.792;2023-04-24T01:15:57;995.17;;;15.03;64.11
54144;BME280;40050;47.324;18.792;2023-04-24T01:17:58;994.67;;;14.69;64.22
54144;BME280;40050;47.324;18.792;2023-04-24T01:19:59;995.18;;;15.05;63.72
54144;BME280;40050;47.324;18.792;2023-04-24T01:22:02;995.15;;;15.12;63.36
54144;BME280;40050;47.324;18.792;2023-04-24T01:24:04;995.13;;;15.15;62.98
54144;BME280;40050;47.324;18.792;2023-04-24T01:26:05;995.13;;;15.20;63.05
54144;BME280;40050;47.324;18.792;2023-04-24T01:28:06;995.08;;;15.20;63.09
54144;BME280;40050;47.324;18.792;2023-04-24T01:30:07;995.08;;;15.23;62.75
54144;BME280;40050;47.324;18.792;2023-04-24T01:32:08;995.03;;;15.27;62.67
54144;BME280;40050;47.324;18.792;2023-04-24T01:34:09;995.05;;;15.26;62.51
54144;BME280;40050;47.324;18.792;2023-04-24T01:36:10;995.00;;;15.27;62.55
54144;BME280;40050;47.324;18.792;2023-04-24T01:38:11;994.96;;;15.27;62.71
54144;BME280;40050;47.324;18.792;2023-04-24T01:40:12;994.94;;;15.32;62.31
54144;BME280;40050;47.324;18.792;2023-04-24T01:42:13;994.99;;;15.37;62.42
54144;BME280;40050;47.324;18.792;2023-04-24T01:44:15;994.96;;;15.37;62.39
54144;BME280;40050;47.324;18.792;2023-04-24T01:46:16;994.63;;;15.19;61.92
54144;BME280;40050;47.324;18.792;2023-04-24T01:48:17;994.93;;;15.37;61.98
54144;BME280;40050;47.324;18.792;2023-04-24T01:50:18;994.97;;;15.43;61.81
54144;BME280;40050;47.324;18.792;2023-04-24T01:52:19;994.83;;;15.39;61.64
54144;BME280;40050;47.324;18.792;2023-04-24T01:54:20;994.93;;;15.46;61.88
54144;BME280;40050;47.324;18.792;2023-04-24T01:56:21;994.89;;;15.45;62.38
54144;BME280;40050;47.324;18.792;2023-04-24T01:58:23;994.86;;;15.48;62.30
54144;BME280;40050;47.324;18.792;2023-04-24T02:00:23;994.82;;;15.49;61.55
54144;BME280;40050;47.324;18.792;2023-04-24T02:02:24;994.79;;;15.51;61.71
54144;BME280;40050;47.324;18.792;2023-04-24T02:04:25;994.80;;;15.53;61.54
54144;BME280;40050;47.324;18.792;2023-04-24T02:06:26;994.78;;;15.53;61.53
54144;BME280;40050;47.324;18.792;2023-04-24T02:08:27;994.76;;;15.56;62.08
54144;BME280;40050;47.324;18.792;2023-04-24T02:10:28;994.70;;;15.59;61.79
54144;BME280;40050;47.324;18.792;2023-04-24T02:12:29;994.75;;;15.61;61.74
54144;BME280;40050;47.324;18.792;2023-04-24T02:14:30;994.73;;;15.61;61.81
54144;BME280;40050;47.324;18.792;2023-04-24T02:16:31;994.75;;;15.62;61.97
54144;BME280;40050;47.324;18.792;2023-04-24T02:18:32;994.76;;;15.66;62.70
54144;BME280;40050;47.324;18.792;2023-04-24T02:20:33;994.79;;;15.68;62.79
54144;BME280;40050;47.324;18.792;2023-04-24T02:22:34;994.77;;;15.73;62.17
54144;BME280;40050;47.324;18.792;2023-04-24T02:24:35;994.79;;;15.74;61.83
54144;BME280;40050;47.324;18.792;2023-04-24T02:26:36;994.74;;;15.77;61.17
54144;BME280;40050;47.324;18.792;2023-04-24T02:28:37;994.80;;;15.78;60.62
54144;BME280;40050;47.324;18.792;2023-04-24T02:30:38;994.69;;;15.66;60.39
54144;BME280;40050;47.324;18.792;2023-04-24T02:32:38;994.68;;;15.65;60.40
54144;BME280;40050;47.324;18.792;2023-04-24T02:34:39;994.68;;;15.63;60.30
54144;BME280;40050;47.324;18.792;2023-04-24T02:36:40;994.73;;;15.66;60.07
54144;BME280;40050;47.324;18.792;2023-04-24T02:38:41;994.80;;;15.68;60.37
54144;BME280;40050;47.324;18.792;2023-04-24T02:40:42;994.82;;;15.69;60.06
54144;BME280;40050;47.324;18.792;2023-04-24T02:42:43;994.83;;;15.67;60.31
54144;BME280;40050;47.324;18.792;2023-04-24T02:44:44;994.76;;;15.56;60.43
54144;BME280;40050;47.324;18.792;2023-04-24T02:46:45;994.64;;;15.60;60.29
54144;BME280;40050;47.324;18.792;2023-04-24T02:48:46;994.59;;;15.58;60.51
54144;BME280;40050;47.324;18.792;2023-04-24T02:50:47;994.57;;;15.54;60.60
54144;BME280;40050;47.324;18.792;2023-04-24T02:52:48;994.52;;;15.51;60.54
54144;BME280;40050;47.324;18.792;2023-04-24T02:54:48;994.53;;;15.50;60.56
54144;BME280;40050;47.324;18.792;2023-04-24T02:56:49;994.52;;;15.49;60.43
54144;BME280;40050;47.324;18.792;2023-04-24T02:58:50;994.55;;;15.51;60.21
54144;BME280;40050;47.324;18.792;2023-04-24T03:00:54;994.52;;;15.45;60.46
54144;BME280;40050;47.324;18.792;2023-04-24T03:02:55;994.48;;;15.41;60.74
54144;BME280;40050;47.324;18.792;2023-04-24T03:04:56;994.44;;;15.40;60.57
54144;BME280;40050;47.324;18.792;2023-04-24T03:06:57;994.51;;;15.43;60.50
54144;BME280;40050;47.324;18.792;2023-04-24T03:08:58;994.55;;;15.47;59.98
54144;BME280;40050;47.324;18.792;2023-04-24T03:10:59;994.47;;;15.53;59.86
54144;BME280;40050;47.324;18.792;2023-04-24T03:13:00;994.47;;;15.50;59.88
54144;BME280;40050;47.324;18.792;2023-04-24T03:15:01;994.40;;;15.49;59.86
54144;BME280;40050;47.324;18.792;2023-04-24T03:17:02;994.38;;;15.51;59.54
54144;BME280;40050;47.324;18.792;2023-04-24T03:19:02;994.28;;;15.48;59.48
54144;BME280;40050;47.324;18.792;2023-04-24T03:21:03;994.29;;;15.42;59.35
54144;BME280;40050;47.324;18.792;2023-04-24T03:23:04;994.31;;;15.39;59.37
54144;BME280;40050;47.324;18.792;2023-04-24T03:25:05;994.24;;;15.39;59.61
54144;BME280;40050;47.324;18.792;2023-04-24T03:27:06;994.24;;;15.39;59.57
54144;BME280;40050;47.324;18.792;2023-04-24T03:29:07;994.18;;;15.28;59.52
54144;BME280;40050;47.324;18.792;2023-04-24T03:31:08;994.21;;;15.33;59.52
54144;BME280;40050;47.324;18.792;2023-04-24T03:33:09;994.21;;;15.33;59.46
54144;BME280;40050;47.324;18.792;2023-04-24T03:35:10;994.20;;;15.26;59.40
54144;BME280;40050;47.324;18.792;2023-04-24T03:37:11;994.27;;;15.26;59.63
54144;BME280;40050;47.324;18.792;2023-04-24T03:39:12;994.32;;;15.28;59.91
54144;BME280;40050;47.324;18.792;2023-04-24T03:41:13;994.28;;;15.18;59.86
54144;BME280;40050;47.324;18.792;2023-04-24T03:43:14;994.28;;;15.11;60.05
54144;BME280;40050;47.324;18.792;2023-04-24T03:45:15;994.31;;;15.05;60.30
54144;BME280;40050;47.324;18.792;2023-04-24T03:47:15;994.35;;;15.06;60.42
54144;BME280;40050;47.324;18.792;2023-04-24T03:49:16;994.35;;;15.08;60.66
54144;BME280;40050;47.324;18.792;2023-04-24T03:51:17;994.31;;;15.08;60.53
54144;BME280;40050;47.324;18.792;2023-04-24T03:53:18;994.20;;;15.05;60.74
54144;BME280;40050;47.324;18.792;2023-04-24T03:55:19;994.27;;;15.05;61.17
54144;BME280;40050;47.324;18.792;2023-04-24T03:57:20;994.18;;;15.03;61.05
54144;BME280;40050;47.324;18.792;2023-04-24T03:59:21;994.22;;;15.07;60.89
54144;BME280;40050;47.324;18.792;2023-04-24T04:01:22;994.24;;;15.00;60.93
54144;BME280;40050;47.324;18.792;2023-04-24T04:03:23;994.32;;;14.98;60.80
54144;BME280;40050;47.324;18.792;2023-04-24T04:05:24;994.17;;;14.65;61.39
54144;BME280;40050;47.324;18.792;2023-04-24T04:07:25;994.47;;;14.93;61.54
54144;BME280;40050;47.324;18.792;2023-04-24T04:09:26;994.42;;;14.94;61.49
54144;BME280;40050;47.324;18.792;2023-04-24T04:11:26;994.41;;;15.04;61.18
54144;BME280;40050;47.324;18.792;2023-04-24T04:13:27;994.33;;;14.99;61.48
54144;BME280;40050;47.324;18.792;2023-04-24T04:15:28;994.34;;;15.02;61.64
54144;BME280;40050;47.324;18.792;2023-04-24T04:17:29;994.31;;;15.00;61.72
54144;BME280;40050;47.324;18.792;2023-04-24T04:19:30;994.32;;;15.04;61.62
54144;BME280;40050;47.324;18.792;2023-04-24T04:21:31;994.29;;;15.04;61.70
54144;BME280;40050;47.324;18.792;2023-04-24T04:23:32;994.28;;;15.08;61.32
54144;BME280;40050;47.324;18.792;2023-04-24T04:25:33;994.32;;;15.10;61.15
54144;BME280;40050;47.324;18.792;2023-04-24T04:27:34;994.42;;;15.16;61.17
54144;BME280;40050;47.324;18.792;2023-04-24T04:29:35;994.33;;;15.14;61.34
54144;BME280;40050;47.324;18.792;2023-04-24T04:31:36;994.31;;;15.14;61.41
54144;BME280;40050;47.324;18.792;2023-04-24T04:33:37;994.35;;;15.16;61.32
54144;BME280;40050;47.324;18.792;2023-04-24T04:35:37;994.34;;;15.16;61.79
54144;BME280;40050;47.324;18.792;2023-04-24T04:37:38;994.34;;;15.13;61.90
54144;BME280;40050;47.324;18.792;2023-04-24T04:39:39;994.40;;;15.15;61.86
54144;BME280;40050;47.324;18.792;2023-04-24T04:41:40;994.36;;;15.16;61.96
54144;BME280;40050;47.324;18.792;2023-04-24T04:43:41;994.40;;;15.21;61.90
54144;BME280;40050;47.324;18.792;2023-04-24T04:45:42;994.33;;;15.22;62.02
54144;BME280;40050;47.324;18.792;2023-04-24T04:47:43;994.27;;;15.23;62.36
54144;BME280;40050;47.324;18.792;2023-04-24T04:49:44;994.22;;;15.23;62.27
54144;BME280;40050;47.324;18.792;2023-04-24T04:51:45;994.33;;;15.23;62.21
54144;BME280;40050;47.324;18.792;2023-04-24T04:53:46;994.19;;;15.25;62.30
54144;BME280;40050;47.324;18.792;2023-04-24T04:55:47;994.26;;;15.28;62.37
54144;BME280;40050;47.324;18.792;2023-04-24T04:57:48;993.94;;;15.10;62.34
54144;BME280;40050;47.324;18.792;2023-04-24T04:59:49;994.26;;;15.32;62.52
54144;BME280;40050;47.324;18.792;2023-04-24T05:01:50;994.26;;;15.36;62.37
54144;BME280;40050;47.324;18.792;2023-04-24T05:03:50;994.25;;;15.36;62.29
54144;BME280;40050;47.324;18.792;2023-04-24T05:05:51;994.32;;;15.43;62.13
54144;BME280;40050;47.324;18.792;2023-04-24T05:07:52;994.29;;;15.41;62.41
54144;BME280;40050;47.324;18.792;2023-04-24T05:09:53;994.27;;;15.41;62.16
54144;BME280;40050;47.324;18.792;2023-04-24T05:11:54;994.29;;;15.37;62.48
54144;BME280;40050;47.324;18.792;2023-04-24T05:13:55;994.32;;;15.40;62.12
54144;BME280;40050;47.324;18.792;2023-04-24T05:15:56;994.31;;;15.29;62.64
54144;BME280;40050;47.324;18.792;2023-04-24T05:17:57;994.38;;;15.30;62.90
54144;BME280;40050;47.324;18.792;2023-04-24T05:19:58;994.37;;;15.27;63.19
54144;BME280;40050;47.324;18.792;2023-04-24T05:21:59;994.36;;;15.19;63.40
54144;BME280;40050;47.324;18.792;2023-04-24T05:24:00;994.31;;;15.20;63.37
54144;BME280;40050;47.324;18.792;2023-04-24T05:26:01;994.36;;;15.17;63.81
54144;BME280;40050;47.324;18.792;2023-04-24T05:28:02;994.38;;;15.15;64.11
54144;BME280;40050;47.324;18.792;2023-04-24T05:30:03;994.33;;;15.19;63.75
54144;BME280;40050;47.324;18.792;2023-04-24T05:32:04;994.39;;;15.17;63.95
54144;BME280;40050;47.324;18.792;2023-04-24T05:34:05;994.35;;;15.16;64.09
54144;BME280;40050;47.324;18.792;2023-04-24T05:36:06;994.45;;;15.21;64.24
54144;BME280;40050;47.324;18.792;2023-04-24T05:38:07;994.53;;;15.22;64.28
54144;BME280;40050;47.324;18.792;2023-04-24T05:40:08;994.49;;;15.25;64.29
54144;BME280;40050;47.324;18.792;2023-04-24T05:42:09;994.50;;;15.27;64.28
54144;BME280;40050;47.324;18.792;2023-04-24T05:44:10;994.57;;;15.29;64.08
54144;BME280;40050;47.324;18.792;2023-04-24T05:46:11;994.52;;;15.41;63.54
54144;BME280;40050;47.324;18.792;2023-04-24T05:48:12;994.62;;;15.34;63.19
54144;BME280;40050;47.324;18.792;2023-04-24T05:50:13;994.61;;;15.31;63.21
54144;BME280;40050;47.324;18.792;2023-04-24T05:52:14;994.59;;;15.35;63.40
54144;BME280;40050;47.324;18.792;2023-04-24T05:54:15;994.58;;;15.41;63.66
54144;BME280;40050;47.324;18.792;2023-04-24T05:56:16;994.53;;;15.44;64.12
54144;BME280;40050;47.324;18.792;2023-04-24T05:58:17;994.54;;;15.34;64.64
54144;BME280;40050;47.324;18.792;2023-04-24T06:00:18;994.55;;;15.40;64.51
54144;BME280;40050;47.324;18.792;2023-04-24T06:02:19;994.52;;;15.24;64.64
54144;BME280;40050;47.324;18.792;2023-04-24T06:04:20;994.55;;;15.18;65.08
54144;BME280;40050;47.324;18.792;2023-04-24T06:06:21;994.51;;;15.28;64.86
54144;BME280;40050;47.324;18.792;2023-04-24T06:08:22;994.51;;;15.33;64.90
54144;BME280;40050;47.324;18.792;2023-04-24T06:10:23;994.48;;;15.33;65.09
54144;BME280;40050;47.324;18.792;2023-04-24T06:12:24;994.45;;;15.38;64.96
54144;BME280;40050;47.324;18.792;2023-04-24T06:14:25;994.39;;;15.29;65.04
54144;BME280;40050;47.324;18.792;2023-04-24T06:16:26;994.50;;;15.43;65.00
54144;BME280;40050;47.324;18.792;2023-04-24T06:18:27;994.44;;;15.45;65.26
54144;BME280;40050;47.324;18.792;2023-04-24T06:20:28;994.46;;;15.53;65.45
54144;BME280;40050;47.324;18.792;2023-04-24T06:22:29;994.49;;;15.51;65.43
54144;BME280;40050;47.324;18.792;2023-04-24T06:24:30;994.55;;;15.56;65.59
54144;BME280;40050;47.324;18.792;2023-04-24T06:26:31;994.54;;;15.44;65.42
54144;BME280;40050;47.324;18.792;2023-04-24T06:28:32;994.60;;;15.51;66.02
54144;BME280;40050;47.324;18.792;2023-04-24T06:30:33;994.56;;;15.41;65.26
54144;BME280;40050;47.324;18.792;2023-04-24T06:32:34;994.48;;;15.48;64.99
54144;BME280;40050;47.324;18.792;2023-04-24T06:34:35;994.43;;;15.48;65.10
54144;BME280;40050;47.324;18.792;2023-04-24T06:36:36;994.36;;;15.47;65.24
54144;BME280;40050;47.324;18.792;2023-04-24T06:38:37;994.29;;;15.38;65.68
54144;BME280;40050;47.324;18.792;2023-04-24T06:40:38;994.41;;;15.48;65.71
54144;BME280;40050;47.324;18.792;2023-04-24T06:42:39;994.44;;;15.58;65.55
54144;BME280;40050;47.324;18.792;2023-04-24T06:44:40;994.48;;;15.55;65.48
54144;BME280;40050;47.324;18.792;2023-04-24T06:46:41;994.46;;;15.43;65.94
54144;BME280;40050;47.324;18.792;2023-04-24T06:48:42;994.40;;;15.45;65.96
54144;BME280;40050;47.324;18.792;2023-04-24T06:50:43;994.42;;;15.25;66.98
54144;BME280;40050;47.324;18.792;2023-04-24T06:52:44;994.38;;;15.42;66.66
54144;BME280;40050;47.324;18.792;2023-04-24T06:54:45;994.46;;;15.48;67.05
54144;BME280;40050;47.324;18.792;2023-04-24T06:56:46;994.46;;;15.46;67.24
54144;BME280;40050;47.324;18.792;2023-04-24T06:58:47;994.46;;;15.45;67.57
54144;BME280;40050;47.324;18.792;2023-04-24T07:00:48;994.45;;;15.29;67.65
54144;BME280;40050;47.324;18.792;2023-04-24T07:02:49;994.43;;;15.35;67.93
54144;BME280;40050;47.324;18.792;2023-04-24T07:04:49;994.34;;;15.41;67.71
54144;BME280;40050;47.324;18.792;2023-04-24T07:06:50;994.42;;;15.58;67.79
54144;BME280;40050;47.324;18.792;2023-04-24T07:08:51;994.41;;;15.69;67.63
54144;BME280;40050;47.324;18.792;2023-04-24T07:10:52;994.42;;;15.77;67.76
54144;BME280;40050;47.324;18.792;2023-04-24T07:12:53;994.45;;;15.82;67.68
54144;BME280;40050;47.324;18.792;2023-04-24T07:14:54;994.39;;;15.96;67.53
54144;BME280;40050;47.324;18.792;2023-04-24T07:16:55;994.46;;;15.97;68.69
54144;BME280;40050;47.324;18.792;2023-04-24T07:18:56;994.51;;;15.97;68.83
54144;BME280;40050;47.324;18.792;2023-04-24T07:20:57;994.49;;;16.20;68.09
54144;BME280;40050;47.324;18.792;2023-04-24T07:22:58;994.39;;;16.30;68.48
54144;BME280;40050;47.324;18.792;2023-04-24T07:24:59;994.47;;;16.36;67.81
54144;BME280;40050;47.324;18.792;2023-04-24T07:27:00;994.41;;;16.21;66.23
54144;BME280;40050;47.324;18.792;2023-04-24T07:29:00;994.39;;;16.34;66.16
54144;BME280;40050;47.324;18.792;2023-04-24T07:31:01;994.39;;;16.59;65.54
54144;BME280;40050;47.324;18.792;2023-04-24T07:33:02;994.52;;;16.73;65.59
54144;BME280;40050;47.324;18.792;2023-04-24T07:35:03;994.46;;;16.71;66.22
54144;BME280;40050;47.324;18.792;2023-04-24T07:37:04;994.43;;;16.69;66.98
54144;BME280;40050;47.324;18.792;2023-04-24T07:39:05;994.50;;;16.44;65.63
54144;BME280;40050;47.324;18.792;2023-04-24T07:41:06;994.53;;;16.34;65.51
54144;BME280;40050;47.324;18.792;2023-04-24T07:43:07;994.56;;;16.41;65.42
54144;BME280;40050;47.324;18.792;2023-04-24T07:45:08;994.52;;;16.26;65.43
54144;BME280;40050;47.324;18.792;2023-04-24T07:47:09;994.56;;;16.32;66.41
54144;BME280;40050;47.324;18.792;2023-04-24T07:49:10;994.51;;;16.14;66.80
54144;BME280;40050;47.324;18.792;2023-04-24T07:51:11;994.54;;;16.10;66.62
54144;BME280;40050;47.324;18.792;2023-04-24T07:53:12;994.45;;;16.15;66.78
54144;BME280;40050;47.324;18.792;2023-04-24T07:55:13;994.47;;;16.30;66.90
54144;BME280;40050;47.324;18.792;2023-04-24T07:57:14;994.48;;;16.37;66.20
54144;BME280;40050;47.324;18.792;2023-04-24T07:59:15;994.46;;;16.22;66.30
54144;BME280;40050;47.324;18.792;2023-04-24T08:01:16;994.41;;;16.43;66.68
54144;BME280;40050;47.324;18.792;2023-04-24T08:03:16;994.41;;;16.35;66.33
54144;BME280;40050;47.324;18.792;2023-04-24T08:05:17;994.41;;;16.27;66.30
54144;BME280;40050;47.324;18.792;2023-04-24T08:07:18;994.38;;;16.32;65.93
54144;BME280;40050;47.324;18.792;2023-04-24T08:09:19;994.37;;;16.26;66.10
54144;BME280;40050;47.324;18.792;2023-04-24T08:11:20;994.41;;;16.47;66.08
54144;BME280;40050;47.324;18.792;2023-04-24T08:13:21;994.41;;;16.56;65.85
54144;BME280;40050;47.324;18.792;2023-04-24T08:15:22;994.43;;;16.61;65.78
54144;BME280;40050;47.324;18.792;2023-04-24T08:17:23;994.42;;;16.81;65.48
54144;BME280;40050;47.324;18.792;2023-04-24T08:19:24;994.46;;;17.00;65.74
54144;BME280;40050;47.324;18.792;2023-04-24T08:21:25;994.39;;;16.95;64.91
54144;BME280;40050;47.324;18.792;2023-04-24T08:23:26;994.38;;;17.04;63.68
54144;BME280;40050;47.324;18.792;2023-04-24T08:25:27;994.34;;;17.09;64.25
54144;BME280;40050;47.324;18.792;2023-04-24T08:27:28;994.31;;;17.36;64.10
54144;BME280;40050;47.324;18.792;2023-04-24T08:29:29;994.15;;;17.44;63.61
54144;BME280;40050;47.324;18.792;2023-04-24T08:31:30;994.28;;;17.48;61.45
54144;BME280;40050;47.324;18.792;2023-04-24T08:33:31;994.33;;;17.56;61.24
54144;BME280;40050;47.324;18.792;2023-04-24T08:35:34;994.30;;;17.64;61.62
54144;BME280;40050;47.324;18.792;2023-04-24T08:37:36;994.33;;;17.87;61.54
54144;BME280;40050;47.324;18.792;2023-04-24T08:39:37;994.36;;;17.87;61.64
54144;BME280;40050;47.324;18.792;2023-04-24T08:41:38;994.33;;;17.85;61.39
54144;BME280;40050;47.324;18.792;2023-04-24T08:43:41;994.34;;;17.96;61.02
54144;BME280;40050;47.324;18.792;2023-04-24T08:45:42;994.31;;;18.12;61.39
54144;BME280;40050;47.324;18.792;2023-04-24T08:47:43;994.30;;;18.18;60.64
54144;BME280;40050;47.324;18.792;2023-04-24T08:49:44;994.33;;;18.18;60.80
54144;BME280;40050;47.324;18.792;2023-04-24T08:51:45;994.29;;;18.35;61.04
54144;BME280;40050;47.324;18.792;2023-04-24T08:53:46;994.36;;;18.41;60.65
54144;BME280;40050;47.324;18.792;2023-04-24T08:55:47;994.31;;;18.61;60.38
54144;BME280;40050;47.324;18.792;2023-04-24T08:57:49;994.33;;;18.71;58.81
54144;BME280;40050;47.324;18.792;2023-04-24T08:59:51;994.36;;;18.45;57.23
54144;BME280;40050;47.324;18.792;2023-04-24T09:01:52;994.34;;;18.48;57.31
54144;BME280;40050;47.324;18.792;2023-04-24T09:03:53;994.34;;;18.63;56.39
54144;BME280;40050;47.324;18.792;2023-04-24T09:05:55;994.34;;;18.62;56.11
54144;BME280;40050;47.324;18.792;2023-04-24T09:07:57;994.27;;;18.87;55.42
54144;BME280;40050;47.324;18.792;2023-04-24T09:10:00;994.31;;;18.95;55.40
54144;BME280;40050;47.324;18.792;2023-04-24T09:12:01;994.33;;;18.85;56.03
54144;BME280;40050;47.324;18.792;2023-04-24T09:14:03;994.20;;;18.98;56.81
54144;BME280;40050;47.324;18.792;2023-04-24T09:16:04;993.98;;;18.84;56.01
54144;BME280;40050;47.324;18.792;2023-04-24T09:18:05;994.23;;;19.11;55.48
54144;BME280;40050;47.324;18.792;2023-04-24T09:20:06;994.24;;;19.10;56.13
54144;BME280;40050;47.324;18.792;2023-04-24T09:22:08;994.21;;;19.05;55.43
54144;BME280;40050;47.324;18.792;2023-04-24T09:24:14;994.22;;;18.98;55.96
54144;BME280;40050;47.324;18.792;2023-04-24T09:26:15;994.19;;;19.17;56.28
54144;BME280;40050;47.324;18.792;2023-04-24T09:28:16;994.16;;;19.14;56.58
54144;BME280;40050;47.324;18.792;2023-04-24T09:30:20;994.16;;;19.00;56.63
54144;BME280;40050;47.324;18.792;2023-04-24T09:32:22;994.21;;;19.16;56.62
54144;BME280;40050;47.324;18.792;2023-04-24T09:34:24;994.01;;;19.12;56.74
54144;BME280;40050;47.324;18.792;2023-04-24T09:36:29;994.13;;;19.41;56.58
54144;BME280;40050;47.324;18.792;2023-04-24T09:38:37;994.15;;;19.38;56.94
54144;BME280;40050;47.324;18.792;2023-04-24T09:40:38;994.17;;;19.32;57.68
54144;BME280;40050;47.324;18.792;2023-04-24T09:42:43;994.10;;;19.37;57.64
54144;BME280;40050;47.324;18.792;2023-04-24T09:44:44;994.11;;;19.42;57.28
54144;BME280;40050;47.324;18.792;2023-04-24T09:46:46;994.02;;;19.10;56.82
54144;BME280;40050;47.324;18.792;2023-04-24T09:48:49;994.00;;;19.20;56.74
54144;BME280;40050;47.324;18.792;2023-04-24T09:50:51;994.01;;;19.15;56.73
54144;BME280;40050;47.324;18.792;2023-04-24T09:52:59;994.03;;;19.06;55.33
54144;BME280;40050;47.324;18.792;2023-04-24T09:55:01;994.02;;;19.08;56.22
54144;BME280;40050;47.324;18.792;2023-04-24T09:57:02;994.02;;;19.02;55.15
54144;BME280;40050;47.324;18.792;2023-04-24T09:59:04;994.01;;;19.11;54.50
54144;BME280;40050;47.324;18.792;2023-04-24T10:01:05;994.02;;;19.30;54.58
54144;BME280;40050;47.324;18.792;2023-04-24T10:03:06;994.01;;;19.11;55.42
54144;BME280;40050;47.324;18.792;2023-04-24T10:05:07;994.03;;;18.91;55.40
54144;BME280;40050;47.324;18.792;2023-04-24T10:07:12;994.05;;;18.89;55.24
54144;BME280;40050;47.324;18.792;2023-04-24T10:09:15;994.01;;;18.98;55.39
54144;BME280;40050;47.324;18.792;2023-04-24T10:11:16;994.02;;;19.06;55.25
54144;BME280;40050;47.324;18.792;2023-04-24T10:13:17;994.05;;;19.21;55.13
54144;BME280;40050;47.324;18.792;2023-04-24T10:15:18;994.00;;;19.24;55.16
54144;BME280;40050;47.324;18.792;2023-04-24T10:17:20;993.99;;;19.38;55.15
54144;BME280;40050;47.324;18.792;2023-04-24T10:19:21;993.98;;;19.31;55.12
54144;BME280;40050;47.324;18.792;2023-04-24T10:21:25;993.89;;;19.50;54.81
54144;BME280;40050;47.324;18.792;2023-04-24T10:23:26;993.84;;;19.63;53.77
54144;BME280;40050;47.324;18.792;2023-04-24T10:25:29;993.81;;;19.69;53.84
54144;BME280;40050;47.324;18.792;2023-04-24T10:27:31;993.82;;;19.72;53.57
54144;BME280;40050;47.324;18.792;2023-04-24T10:29:32;993.71;;;19.76;52.93
54144;BME280;40050;47.324;18.792;2023-04-24T10:31:36;993.84;;;19.83;51.56
54144;BME280;40050;47.324;18.792;2023-04-24T10:33:37;993.83;;;19.87;50.67
54144;BME280;40050;47.324;18.792;2023-04-24T10:35:40;993.76;;;20.17;49.97
54144;BME280;40050;47.324;18.792;2023-04-24T10:37:46;993.73;;;20.40;50.23
54144;BME280;40050;47.324;18.792;2023-04-24T10:39:49;993.77;;;20.66;49.61
54144;BME280;40050;47.324;18.792;2023-04-24T10:41:50;993.73;;;20.95;48.85
54144;BME280;40050;47.324;18.792;2023-04-24T10:44:13;993.71;;;21.10;47.62
54144;BME280;40050;47.324;18.792;2023-04-24T10:46:16;993.72;;;21.41;45.09
54144;BME280;40050;47.324;18.792;2023-04-24T10:48:32;993.61;;;21.37;45.57
54144;BME280;40050;47.324;18.792;2023-04-24T10:53:27;993.59;;;21.93;44.51